• Join FlightAware (Why Join?)
  • Login
  • US Flag 
06:01PM EDT


 

Airport Tracker/Info


-or-


 

Live Flight TrackerFlight Track Log ✈ N662US ✈ 13-Jun-2013 ✈ RJAA / NRT - KATL

Flight Track Log - Related Links

Times and Time Zones

All times are in EDT time to prevent confusion due to time zone crossing. See the N662US flight status page for this flight to view local times or setup timezone preferences in your user account.

Time Position Orientation Groundspeed Altitude Reporting Facility
EDT Latitude Longitude Course Direction KTS MPH feet Rate Location/Type
03:14AM 35.8010 140.3480 329° Northwest 187 215 2,100  Level FlightAware
03:15AM 35.8330 140.3270 332° Northwest 196 226 2,500 780 Climbing FlightAware
03:15AM 35.8550 140.3110 329° Northwest 203 234 3,000 840 Climbing FlightAware
03:16AM 35.8750 140.3010 338° Northwest 203 234 3,300 540 Climbing FlightAware
03:16AM 35.8950 140.3220 40° Northeast 195 224 3,500 720 Climbing FlightAware
03:17AM 35.8830 140.3520 116° Southeast 212 244 4,000 900 Climbing FlightAware
03:17AM 35.8610 140.3790 135° Southeast 235 270 4,400 900 Climbing FlightAware
03:17AM 35.8520 140.3900 135° Southeast 240 276 4,600 1,320 Climbing FlightAware
03:18AM 35.8300 140.4170 135° Southeast 256 295 5,300 1,560 Climbing FlightAware
03:18AM 35.8070 140.4450 135° Southeast 260 299 6,100 1,740 Climbing FlightAware
03:19AM 35.7770 140.4800 137° Southeast 263 303 7,000 1,800 Climbing FlightAware
03:19AM 35.7550 140.5070 135° Southeast 265 305 7,800 1,980 Climbing FlightAware
03:20AM 35.7250 140.5420 137° Southeast 270 311 8,900 1,620 Climbing FlightAware
03:20AM 35.7030 140.5680 136° Southeast 274 315 9,400 1,020 Climbing FlightAware
03:21AM 35.6860 140.5930 130° Southeast 284 327 9,700 1,080 Climbing FlightAware
03:21AM 35.6650 140.6450 116° Southeast 312 359 10,400 1,080 Climbing FlightAware
03:22AM 35.6350 140.7240 115° Southeast 349 402 11,200 1,020 Climbing FlightAware
03:23AM 35.6070 140.7980 115° Southeast 378 435 11,900 1,200 Climbing FlightAware
03:23AM 35.5730 140.8870 115° Southeast 399 459 12,900 1,500 Climbing FlightAware
03:24AM 35.5440 140.9620 115° Southeast 412 474 13,900 1,740 Climbing FlightAware
03:25AM 35.5070 141.0590 115° Southeast 421 484 15,300 1,680 Climbing FlightAware
03:25AM 35.5040 141.0680 112° Southeast 15,400 1,620 Climbing FlightAware
03:26AM 35.4630 141.1940 112° Southeast 432 497 16,900 2,460 Climbing FlightAware
03:26AM 35.4350 141.2870 110° East 439 505 17,900 1,380 Climbing FlightAware
03:27AM 35.4040 141.3880 111° Southeast 450 518 18,800 1,440 Climbing FlightAware
03:28AM 35.3760 141.4790 111° Southeast 449 517 19,900 1,500 Climbing FlightAware
03:28AM 35.3450 141.5800 111° Southeast 457 526 20,900 1,320 Climbing FlightAware
03:29AM 35.3100 141.6930 111° Southeast 463 533 21,800 1,140 Climbing FlightAware
03:30AM 35.2650 141.8360 111° Southeast 469 540 22,900 1,020 Climbing FlightAware
03:31AM 35.2240 141.9690 111° Southeast 470 541 23,800 1,020 Climbing FlightAware
03:32AM 35.1920 142.0770 110° East 485 558 24,600 900 Climbing FlightAware
03:32AM 35.1970 142.1960 87° East 504 580 25,100 780 Climbing FlightAware
03:33AM 35.2520 142.3050 58° Northeast 516 594 25,800 900 Climbing FlightAware
03:34AM 35.3090 142.3990 53° Northeast 516 594 26,400 540 Climbing FlightAware
03:35AM 35.3640 142.4850 52° Northeast 516 594 26,600 720 Climbing FlightAware
03:35AM 35.4350 142.6000 53° Northeast 518 596 27,500 1,500 Climbing FlightAware
03:36AM 35.4870 142.6850 53° Northeast 516 594 28,500 540 Climbing FlightAware
03:38AM 35.6600 142.9780 54° Northeast 518 596 29,000 180 Climbing FlightAware
03:38AM 35.7000 143.0430 53° Northeast 514 592 29,000  Level FlightAware
03:39AM 35.7590 143.1390 53° Northeast 514 592 29,000  Level FlightAware
03:42AM 36.0113 143.3856 38° Northeast  Level Estimated
03:43AM 36.1200 143.4926 38° Northeast  Level Estimated
03:44AM 36.2286 143.5998 39° Northeast  Level Estimated
03:45AM 36.3372 143.7074 39° Northeast  Level Estimated
03:46AM 36.4456 143.8152 39° Northeast  Level Estimated
03:47AM 36.5540 143.9233 39° Northeast  Level Estimated
03:48AM 36.6622 144.0318 39° Northeast  Level Estimated
03:49AM 36.7704 144.1405 39° Northeast  Level Estimated
03:50AM 36.8784 144.2496 39° Northeast  Level Estimated
03:51AM 36.9864 144.3590 39° Northeast  Level Estimated
03:52AM 37.0942 144.4686 39° Northeast  Level Estimated
03:53AM 37.2020 144.5786 39° Northeast  Level Estimated
03:54AM 37.3096 144.6889 39° Northeast  Level Estimated
03:55AM 37.4172 144.7996 39° Northeast  Level Estimated
03:56AM 37.5246 144.9105 39° Northeast  Level Estimated
03:57AM 37.6320 145.0218 39° Northeast  Level Estimated
03:58AM 37.7392 145.1333 39° Northeast  Level Estimated
03:59AM 37.8463 145.2453 40° Northeast  Level Estimated
04:00AM 37.9533 145.3575 40° Northeast  Level Estimated
04:01AM 38.0602 145.4700 40° Northeast  Level Estimated
04:02AM 38.1671 145.5829 40° Northeast  Level Estimated
04:03AM 38.2738 145.6962 40° Northeast  Level Estimated
04:04AM 38.3803 145.8097 40° Northeast  Level Estimated
04:05AM 38.4868 145.9236 40° Northeast  Level Estimated
04:06AM 38.5932 146.0378 40° Northeast  Level Estimated
04:07AM 38.6995 146.1524 40° Northeast  Level Estimated
04:08AM 38.8056 146.2673 40° Northeast  Level Estimated
04:09AM 38.9116 146.3825 40° Northeast  Level Estimated
04:10AM 39.0176 146.4981 40° Northeast  Level Estimated
04:11AM 39.1234 146.6140 40° Northeast  Level Estimated
04:12AM 39.2291 146.7303 40° Northeast  Level Estimated
04:13AM 39.3346 146.8470 40° Northeast  Level Estimated
04:14AM 39.4401 146.9639 41° Northeast  Level Estimated
04:15AM 39.5454 147.0813 41° Northeast  Level Estimated
04:16AM 39.6507 147.1990 41° Northeast  Level Estimated
04:17AM 39.7557 147.3170 41° Northeast  Level Estimated
04:18AM 39.8607 147.4355 41° Northeast  Level Estimated
04:19AM 39.9656 147.5542 41° Northeast  Level Estimated
04:20AM 40.0703 147.6734 41° Northeast  Level Estimated
04:21AM 40.1749 147.7929 41° Northeast  Level Estimated
04:22AM 40.2794 147.9128 41° Northeast  Level Estimated
04:23AM 40.3838 148.0330 41° Northeast  Level Estimated
04:24AM 40.4881 148.1537 41° Northeast  Level Estimated
04:25AM 40.5922 148.2747 41° Northeast  Level Estimated
04:26AM 40.6962 148.3961 41° Northeast  Level Estimated
04:27AM 40.8000 148.5178 42° Northeast  Level Estimated
04:28AM 40.9038 148.6400 42° Northeast  Level Estimated
04:29AM 41.0074 148.7625 42° Northeast  Level Estimated
04:30AM 41.1109 148.8854 42° Northeast  Level Estimated
04:31AM 41.2142 149.0087 42° Northeast  Level Estimated
04:32AM 41.3174 149.1324 42° Northeast  Level Estimated
04:33AM 41.4205 149.2565 42° Northeast  Level Estimated
04:34AM 41.5235 149.3809 42° Northeast  Level Estimated
04:35AM 41.6263 149.5058 42° Northeast  Level Estimated
04:36AM 41.7290 149.6311 42° Northeast  Level Estimated
04:37AM 41.8315 149.7567 42° Northeast  Level Estimated
04:38AM 41.9339 149.8828 42° Northeast  Level Estimated
04:39AM 42.0362 150.0093 43° Northeast  Level Estimated
04:40AM 42.1383 150.1362 43° Northeast  Level Estimated
04:41AM 42.2403 150.2634 43° Northeast  Level Estimated
04:42AM 42.3421 150.3911 43° Northeast  Level Estimated
04:43AM 42.4438 150.5193 43° Northeast  Level Estimated
04:44AM 42.5454 150.6478 43° Northeast  Level Estimated
04:45AM 42.6468 150.7768 43° Northeast  Level Estimated
04:46AM 42.7481 150.9061 43° Northeast  Level Estimated
04:47AM 42.8626 151.0532 43° Northeast  Level Estimated
04:48AM 42.9770 151.2009 43° Northeast  Level Estimated
04:49AM 43.0912 151.3490 43° Northeast  Level Estimated
04:50AM 43.2052 151.4978 44° Northeast  Level Estimated
04:51AM 43.3190 151.6471 44° Northeast  Level Estimated
04:52AM 43.4326 151.7969 44° Northeast  Level Estimated
04:53AM 43.5460 151.9473 44° Northeast  Level Estimated
04:54AM 43.6592 152.0983 44° Northeast  Level Estimated
04:55AM 43.7722 152.2498 44° Northeast  Level Estimated
04:56AM 43.8850 152.4020 44° Northeast  Level Estimated
04:57AM 43.9976 152.5547 44° Northeast  Level Estimated
04:58AM 44.1100 152.7079 44° Northeast  Level Estimated
04:59AM 44.2221 152.8618 44° Northeast  Level Estimated
05:00AM 44.3341 153.0163 45° Northeast  Level Estimated
05:01AM 44.4459 153.1713 45° Northeast  Level Estimated
05:02AM 44.5575 153.3269 45° Northeast  Level Estimated
05:03AM 44.6688 153.4832 45° Northeast  Level Estimated
05:04AM 44.7799 153.6400 45° Northeast  Level Estimated
05:05AM 44.8909 153.7974 45° Northeast  Level Estimated
05:06AM 45.0016 153.9555 45° Northeast  Level Estimated
05:07AM 45.1121 154.1142 45° Northeast  Level Estimated
05:08AM 45.2223 154.2734 45° Northeast  Level Estimated
05:09AM 45.3324 154.4333 46° Northeast  Level Estimated
05:10AM 45.4422 154.5938 46° Northeast  Level Estimated
05:11AM 45.5518 154.7550 46° Northeast  Level Estimated
05:12AM 45.6612 154.9167 46° Northeast  Level Estimated
05:13AM 45.7703 155.0791 46° Northeast  Level Estimated
05:14AM 45.8792 155.2422 46° Northeast  Level Estimated
05:15AM 45.9879 155.4059 46° Northeast  Level Estimated
05:16AM 46.0963 155.5702 46° Northeast  Level Estimated
05:17AM 46.2045 155.7351 47° Northeast  Level Estimated
05:18AM 46.3125 155.9008 47° Northeast  Level Estimated
05:19AM 46.4202 156.0670 47° Northeast  Level Estimated
05:20AM 46.5277 156.2340 47° Northeast  Level Estimated
05:21AM 46.6349 156.4016 47° Northeast  Level Estimated
05:22AM 46.7419 156.5698 47° Northeast  Level Estimated
05:23AM 46.8487 156.7387 47° Northeast  Level Estimated
05:24AM 46.9552 156.9083 47° Northeast  Level Estimated
05:25AM 47.0614 157.0786 47° Northeast  Level Estimated
05:26AM 47.1674 157.2495 48° Northeast  Level Estimated
05:27AM 47.2731 157.4212 48° Northeast  Level Estimated
05:28AM 47.3786 157.5935 48° Northeast  Level Estimated
05:29AM 47.4838 157.7665 48° Northeast  Level Estimated
05:30AM 47.5888 157.9402 48° Northeast  Level Estimated
05:31AM 47.6935 158.1146 48° Northeast  Level Estimated
05:32AM 47.7979 158.2897 48° Northeast  Level Estimated
05:33AM 47.9021 158.4655 48° Northeast  Level Estimated
05:34AM 48.0060 158.6420 49° Northeast  Level Estimated
05:35AM 48.1096 158.8192 49° Northeast  Level Estimated
05:36AM 48.2129 158.9972 49° Northeast  Level Estimated
05:37AM 48.3160 159.1758 49° Northeast  Level Estimated
05:38AM 48.4188 159.3552 49° Northeast  Level Estimated
05:39AM 48.5213 159.5353 49° Northeast  Level Estimated
05:40AM 48.6235 159.7161 49° Northeast  Level Estimated
05:41AM 48.7255 159.8977 50° Northeast  Level Estimated
05:42AM 48.8271 160.0800 50° Northeast  Level Estimated
05:43AM 48.9285 160.2630 50° Northeast  Level Estimated
05:44AM 49.0296 160.4468 50° Northeast  Level Estimated
05:45AM 49.1304 160.6314 50° Northeast  Level Estimated
05:46AM 49.2309 160.8167 50° Northeast  Level Estimated
05:47AM 49.3311 161.0027 50° Northeast  Level Estimated
05:48AM 49.4310 161.1895 51° Northeast  Level Estimated
05:49AM 49.5306 161.3771 51° Northeast  Level Estimated
05:50AM 49.6298 161.5654 51° Northeast  Level Estimated
05:50AM 43.5667 164.5667 82° East 528 608 31,000  Level Oakland Oceanic (ODAPS)
05:51AM 49.7288 161.7545 51° Northeast  Level Estimated
05:52AM 49.8275 161.9443 51° Northeast  Level Estimated
05:53AM 49.9259 162.1350 51° Northeast  Level Estimated
05:54AM 50.0239 162.3264 51° Northeast  Level Estimated
05:55AM 50.1216 162.5186 52° Northeast  Level Estimated
05:56AM 43.7037 165.9674 83° East 528 608 31,000  Level FlightAware Transoceanic
05:57AM 43.7219 166.1680 83° East 528 608 31,000  Level FlightAware Transoceanic
05:58AM 43.7397 166.3687 83° East 528 608 31,000  Level FlightAware Transoceanic
05:59AM 43.7571 166.5696 83° East 528 608 31,000  Level FlightAware Transoceanic
06:00AM 43.7743 166.7706 83° East 528 608 31,000  Level FlightAware Transoceanic
06:01AM 43.7910 166.9716 83° East 528 608 31,000  Level FlightAware Transoceanic
06:02AM 43.8074 167.1728 84° East 528 608 31,000  Level FlightAware Transoceanic
06:03AM 43.8235 167.3741 84° East 528 608 31,000  Level FlightAware Transoceanic
06:04AM 43.8392 167.5756 84° East 528 608 31,000  Level FlightAware Transoceanic
06:05AM 43.8546 167.7771 84° East 528 608 31,000  Level FlightAware Transoceanic
06:06AM 43.8696 167.9787 84° East 528 608 31,000  Level FlightAware Transoceanic
06:07AM 43.8842 168.1804 84° East 528 608 31,000  Level FlightAware Transoceanic
06:08AM 43.8985 168.3822 84° East 528 608 31,000  Level FlightAware Transoceanic
06:09AM 43.9124 168.5841 85° East 528 608 31,000  Level FlightAware Transoceanic
06:10AM 43.9260 168.7861 85° East 528 608 31,000  Level FlightAware Transoceanic
06:11AM 43.9392 168.9882 85° East 528 608 31,000  Level FlightAware Transoceanic
06:12AM 43.9521 169.1904 85° East 528 608 31,000  Level FlightAware Transoceanic
06:13AM 43.9646 169.3927 85° East 528 608 31,000  Level FlightAware Transoceanic
06:14AM 43.9768 169.5950 85° East 528 608 31,000  Level FlightAware Transoceanic
06:15AM 43.9886 169.7975 85° East 528 608 31,000  Level FlightAware Transoceanic
06:16AM 44.0000 170.0000 63° Northeast 528 608 31,000  Level FlightAware Transoceanic
06:17AM 44.0697 170.1933 63° Northeast 528 608 31,000  Level FlightAware Transoceanic
06:18AM 44.1390 170.3871 64° Northeast 528 608 31,000  Level FlightAware Transoceanic
06:18AM 44.0000 170.0000 63° Northeast 550 633 31,000  Level Oakland Oceanic (ODAPS)
06:19AM 44.2080 170.5813 64° Northeast 528 608 31,000  Level FlightAware Transoceanic
06:20AM 44.2766 170.7759 64° Northeast 528 608 31,000  Level FlightAware Transoceanic
06:21AM 44.3450 170.9711 64° Northeast 528 608 31,000  Level FlightAware Transoceanic
06:22AM 44.4130 171.1666 64° Northeast 528 608 31,000  Level FlightAware Transoceanic
06:23AM 44.4807 171.3627 64° Northeast 528 608 31,000  Level FlightAware Transoceanic
06:24AM 44.5373 171.5277 64° Northeast 550 633 31,000  Level FlightAware Transoceanic
06:25AM 44.6030 171.7206 65° Northeast 550 633 31,000  Level FlightAware Transoceanic
06:26AM 44.6684 171.9140 65° Northeast 550 633 31,000  Level FlightAware Transoceanic
06:27AM 44.7334 172.1078 65° Northeast 550 633 31,000  Level FlightAware Transoceanic
06:28AM 44.7981 172.3020 65° Northeast 550 633 31,000  Level FlightAware Transoceanic
06:29AM 44.8626 172.4966 65° Northeast 550 633 31,000  Level FlightAware Transoceanic
06:30AM 44.9266 172.6917 65° Northeast 550 633 31,000  Level FlightAware Transoceanic
06:31AM 44.9904 172.8873 65° Northeast 550 633 31,000  Level FlightAware Transoceanic
06:32AM 45.0538 173.0832 65° Northeast 550 633 31,000  Level FlightAware Transoceanic
06:33AM 45.1168 173.2796 66° East 550 633 31,000  Level FlightAware Transoceanic
06:34AM 45.1796 173.4765 66° East 550 633 31,000  Level FlightAware Transoceanic
06:35AM 45.2420 173.6738 66° East 550 633 31,000  Level FlightAware Transoceanic
06:36AM 45.3040 173.8714 66° East 550 633 31,000  Level FlightAware Transoceanic
06:37AM 45.3657 174.0696 66° East 550 633 31,000  Level FlightAware Transoceanic
06:38AM 45.4271 174.2681 66° East 550 633 31,000  Level FlightAware Transoceanic
06:39AM 45.4881 174.4671 66° East 550 633 31,000  Level FlightAware Transoceanic
06:40AM 45.5488 174.6666 67° East 550 633 31,000  Level FlightAware Transoceanic
06:41AM 45.6091 174.8664 67° East 550 633 31,000  Level FlightAware Transoceanic
06:42AM 45.6691 175.0667 67° East 550 633 31,000  Level FlightAware Transoceanic
06:43AM 45.7287 175.2674 67° East 550 633 31,000  Level FlightAware Transoceanic
06:44AM 45.7880 175.4686 67° East 550 633 31,000  Level FlightAware Transoceanic
06:45AM 45.8469 175.6701 67° East 550 633 31,000  Level FlightAware Transoceanic
06:46AM 45.9055 175.8721 67° East 550 633 31,000  Level FlightAware Transoceanic
06:47AM 45.9637 176.0746 68° East 550 633 31,000  Level FlightAware Transoceanic
06:48AM 46.0216 176.2774 68° East 550 633 31,000  Level FlightAware Transoceanic
06:49AM 46.0790 176.4807 68° East 550 633 31,000  Level FlightAware Transoceanic
06:50AM 46.1362 176.6844 68° East 550 633 31,000  Level FlightAware Transoceanic
06:51AM 46.1930 176.8885 68° East 550 633 31,000  Level FlightAware Transoceanic
06:52AM 46.2494 177.0930 68° East 550 633 31,000  Level FlightAware Transoceanic
06:53AM 46.3054 177.2979 68° East 550 633 31,000  Level FlightAware Transoceanic
06:54AM 46.3611 177.5033 69° East 550 633 31,000  Level FlightAware Transoceanic
06:55AM 46.4164 177.7091 69° East 550 633 31,000  Level FlightAware Transoceanic
06:56AM 46.4713 177.9153 69° East 550 633 31,000  Level FlightAware Transoceanic
06:57AM 46.5259 178.1219 69° East 550 633 31,000  Level FlightAware Transoceanic
06:58AM 46.5801 178.3290 69° East 550 633 31,000  Level FlightAware Transoceanic
06:59AM 46.6339 178.5364 69° East 550 633 31,000  Level FlightAware Transoceanic
07:00AM 46.6873 178.7443 70° East 550 633 31,000  Level FlightAware Transoceanic
07:01AM 46.7404 178.9525 70° East 550 633 31,000  Level FlightAware Transoceanic
07:02AM 46.7931 179.1612 70° East 550 633 31,000  Level FlightAware Transoceanic
07:03AM 46.8454 179.3703 70° East 550 633 31,000  Level FlightAware Transoceanic
07:04AM 46.8973 179.5798 70° East 550 633 31,000  Level FlightAware Transoceanic
07:04AM 47.0000 -180.0000 62° Northeast 570 656 31,000  Level Oakland Oceanic (ODAPS)
07:05AM 46.9488 179.7897 70° East 550 633 31,000  Level FlightAware Transoceanic
07:06AM 47.0000 -180.0000 62° Northeast 550 633 31,000  Level FlightAware Transoceanic
07:07AM 47.0757 -179.7908 62° Northeast 550 633 31,000  Level FlightAware Transoceanic
07:08AM 47.1511 -179.5809 62° Northeast 550 633 31,000  Level FlightAware Transoceanic
07:09AM 47.2261 -179.3705 62° Northeast 550 633 31,000  Level FlightAware Transoceanic
07:10AM 47.3007 -179.1595 63° Northeast 550 633 31,000  Level FlightAware Transoceanic
07:11AM 47.5825 -178.3466 63° Northeast 570 656 31,000  Level FlightAware Transoceanic
07:12AM 47.6536 -178.1373 63° Northeast 570 656 31,000  Level FlightAware Transoceanic
07:13AM 47.7243 -177.9275 63° Northeast 570 656 31,000  Level FlightAware Transoceanic
07:14AM 47.7947 -177.7172 64° Northeast 570 656 31,000  Level FlightAware Transoceanic
07:15AM 47.8646 -177.5062 64° Northeast 570 656 31,000  Level FlightAware Transoceanic
07:16AM 47.9342 -177.2947 64° Northeast 570 656 31,000  Level FlightAware Transoceanic
07:17AM 48.0034 -177.0826 64° Northeast 570 656 31,000  Level FlightAware Transoceanic
07:18AM 48.0722 -176.8700 64° Northeast 570 656 31,000  Level FlightAware Transoceanic
07:19AM 48.1406 -176.6568 64° Northeast 570 656 31,000  Level FlightAware Transoceanic
07:20AM 48.2086 -176.4430 65° Northeast 570 656 31,000  Level FlightAware Transoceanic
07:21AM 48.2762 -176.2286 65° Northeast 570 656 31,000  Level FlightAware Transoceanic
07:22AM 48.3435 -176.0137 65° Northeast 570 656 31,000  Level FlightAware Transoceanic
07:23AM 48.4103 -175.7982 65° Northeast 570 656 31,000  Level FlightAware Transoceanic
07:24AM 48.4767 -175.5822 65° Northeast 570 656 31,000  Level FlightAware Transoceanic
07:25AM 48.5427 -175.3655 65° Northeast 570 656 31,000  Level FlightAware Transoceanic
07:26AM 48.6083 -175.1484 66° East 570 656 31,000  Level FlightAware Transoceanic
07:27AM 48.6735 -174.9306 66° East 570 656 31,000  Level FlightAware Transoceanic
07:28AM 48.7383 -174.7123 66° East 570 656 31,000  Level FlightAware Transoceanic
07:29AM 48.8026 -174.4935 66° East 570 656 31,000  Level FlightAware Transoceanic
07:30AM 48.8666 -174.2740 66° East 570 656 31,000  Level FlightAware Transoceanic
07:31AM 48.9301 -174.0540 66° East 570 656 31,000  Level FlightAware Transoceanic
07:32AM 48.9932 -173.8335 67° East 570 656 31,000  Level FlightAware Transoceanic
07:33AM 49.0559 -173.6124 67° East 570 656 31,000  Level FlightAware Transoceanic
07:34AM 49.1182 -173.3907 67° East 570 656 31,000  Level FlightAware Transoceanic
07:35AM 49.1800 -173.1685 67° East 570 656 31,000  Level FlightAware Transoceanic
07:36AM 49.2414 -172.9458 67° East 570 656 31,000  Level FlightAware Transoceanic
07:37AM 49.3024 -172.7224 67° East 570 656 31,000  Level FlightAware Transoceanic
07:38AM 49.3630 -172.4986 68° East 570 656 31,000  Level FlightAware Transoceanic
07:39AM 49.4231 -172.2741 68° East 570 656 31,000  Level FlightAware Transoceanic
07:40AM 49.4828 -172.0492 68° East 570 656 31,000  Level FlightAware Transoceanic
07:41AM 49.5420 -171.8236 68° East 570 656 31,000  Level FlightAware Transoceanic
07:42AM 49.6008 -171.5976 68° East 570 656 31,000  Level FlightAware Transoceanic
07:43AM 49.6592 -171.3710 68° East 570 656 31,000  Level FlightAware Transoceanic
07:44AM 49.7171 -171.1438 69° East 570 656 31,000  Level FlightAware Transoceanic
07:45AM 49.7746 -170.9161 69° East 570 656 31,000  Level FlightAware Transoceanic
07:46AM 49.8316 -170.6879 69° East 570 656 31,000  Level FlightAware Transoceanic
07:47AM 49.8882 -170.4591 69° East 570 656 31,000  Level FlightAware Transoceanic
07:48AM 49.9443 -170.2298 69° East 570 656 31,000  Level FlightAware Transoceanic
07:49AM 50.0000 -170.0000 77° East 570 656 31,000  Level FlightAware Transoceanic
07:50AM 50.0336 -169.7674 77° East 570 656 31,000  Level FlightAware Transoceanic
07:51AM 50.0668 -169.5345 78° East 570 656 31,000  Level FlightAware Transoceanic
07:52AM 50.0995 -169.3013 78° East 570 656 31,000  Level FlightAware Transoceanic
07:53AM 50.1318 -169.0678 78° East 570 656 31,000  Level FlightAware Transoceanic
07:54AM 50.1635 -168.8339 78° East 570 656 31,000  Level FlightAware Transoceanic
07:55AM 50.1948 -168.5998 78° East 570 656 31,000  Level FlightAware Transoceanic
07:56AM 50.2257 -168.3653 78° East 570 656 31,000  Level FlightAware Transoceanic
07:57AM 50.2560 -168.1305 79° East 570 656 31,000  Level FlightAware Transoceanic
07:58AM 50.2859 -167.8955 79° East 570 656 31,000 1,500 Level FlightAware Transoceanic
07:58AM 50.0000 -170.0000 77° East 664 764 33,000  Climbing Oakland Oceanic (ODAPS)
07:59AM 50.3153 -167.6601 79° East 570 656 31,000 -1,200 Descending FlightAware Transoceanic
08:00AM 50.3442 -167.4245 79° East 570 656 31,000  Level FlightAware Transoceanic
08:01AM 50.3727 -167.1886 79° East 570 656 31,000  Level FlightAware Transoceanic
08:02AM 50.4007 -166.9523 80° East 570 656 31,000  Level FlightAware Transoceanic
08:03AM 50.4282 -166.7159 80° East 570 656 31,000 960 Level FlightAware Transoceanic
08:04AM 50.3036 -167.7543 79° East 664 764 33,000 960 Climbing FlightAware Transoceanic
08:05AM 50.3385 -167.4716 79° East 664 764 33,000  Level FlightAware Transoceanic
08:06AM 50.3727 -167.1886 79° East 664 764 33,000  Level FlightAware Transoceanic
08:07AM 50.4062 -166.9051 80° East 664 764 33,000  Level FlightAware Transoceanic
08:08AM 50.4390 -166.6212 80° East 664 764 33,000  Level FlightAware Transoceanic
08:09AM 50.4712 -166.3369 80° East 664 764 33,000  Level FlightAware Transoceanic
08:10AM 50.5026 -166.0523 80° East 664 764 33,000  Level FlightAware Transoceanic
08:11AM 50.5334 -165.7672 80° East 664 764 33,000  Level FlightAware Transoceanic
08:12AM 50.5634 -165.4818 81° East 664 764 33,000  Level FlightAware Transoceanic
08:13AM 50.5928 -165.1961 81° East 664 764 33,000  Level FlightAware Transoceanic
08:14AM 50.6214 -164.9100 81° East 664 764 33,000  Level FlightAware Transoceanic
08:15AM 50.6493 -164.6235 81° East 664 764 33,000  Level FlightAware Transoceanic
08:16AM 50.6766 -164.3367 82° East 664 764 33,000  Level FlightAware Transoceanic
08:17AM 50.7031 -164.0496 82° East 664 764 33,000  Level FlightAware Transoceanic
08:18AM 50.7290 -163.7622 82° East 664 764 33,000  Level FlightAware Transoceanic
08:19AM 50.7541 -163.4744 82° East 664 764 33,000  Level FlightAware Transoceanic
08:20AM 50.7785 -163.1864 82° East 664 764 33,000  Level FlightAware Transoceanic
08:21AM 50.8022 -162.8980 83° East 664 764 33,000  Level FlightAware Transoceanic
08:22AM 50.8252 -162.6094 83° East 664 764 33,000  Level FlightAware Transoceanic
08:23AM 50.8475 -162.3204 83° East 664 764 33,000  Level FlightAware Transoceanic
08:24AM 50.8691 -162.0312 83° East 664 764 33,000  Level FlightAware Transoceanic
08:25AM 50.8899 -161.7418 84° East 664 764 33,000  Level FlightAware Transoceanic
08:26AM 50.9101 -161.4521 84° East 664 764 33,000  Level FlightAware Transoceanic
08:27AM 50.9295 -161.1621 84° East 664 764 33,000  Level FlightAware Transoceanic
08:28AM 50.9482 -160.8719 84° East 664 764 33,000  Level FlightAware Transoceanic
08:29AM 50.9662 -160.5815 84° East 664 764 33,000  Level FlightAware Transoceanic
08:30AM 50.9835 -160.2909 85° East 664 764 33,000  Level FlightAware Transoceanic
08:31AM 51.0000 -160.0000 86° East 664 764 33,000  Level FlightAware Transoceanic
08:32AM 51.0099 -159.7626 86° East 664 764 33,000  Level FlightAware Transoceanic
08:33AM 51.0193 -159.5251 86° East 664 764 33,000  Level FlightAware Transoceanic
08:34AM 51.0283 -159.2875 87° East 664 764 33,000  Level FlightAware Transoceanic
08:34AM 51.0000 -160.0000 86° East 528 608 33,000  Level Oakland Oceanic (ODAPS)
08:35AM 51.0368 -159.0498 87° East 664 764 33,000  Level FlightAware Transoceanic
08:36AM 51.0448 -158.8120 87° East 664 764 33,000  Level FlightAware Transoceanic
08:37AM 51.0523 -158.5741 87° East 664 764 33,000  Level FlightAware Transoceanic
08:38AM 51.0593 -158.3362 87° East 664 764 33,000  Level FlightAware Transoceanic
08:39AM 51.0658 -158.0982 88° East 664 764 33,000  Level FlightAware Transoceanic
08:40AM 51.0707 -157.9099 88° East 528 608 33,000  Level FlightAware Transoceanic
08:41AM 51.0762 -157.6774 88° East 528 608 33,000  Level FlightAware Transoceanic
08:42AM 51.0813 -157.4447 88° East 528 608 33,000  Level FlightAware Transoceanic
08:43AM 51.0859 -157.2120 88° East 528 608 33,000  Level FlightAware Transoceanic
08:44AM 51.0901 -156.9793 88° East 528 608 33,000  Level FlightAware Transoceanic
08:45AM 51.0938 -156.7465 89° East 528 608 33,000  Level FlightAware Transoceanic
08:46AM 51.0970 -156.5137 89° East 528 608 33,000  Level FlightAware Transoceanic
08:47AM 51.0998 -156.2809 89° East 528 608 33,000  Level FlightAware Transoceanic
08:48AM 51.1021 -156.0480 89° East 528 608 33,000  Level FlightAware Transoceanic
08:49AM 51.1040 -155.8152 89° East 528 608 33,000  Level FlightAware Transoceanic
08:50AM 51.1054 -155.5823 90° East 528 608 33,000  Level FlightAware Transoceanic
08:51AM 51.1063 -155.3494 90° East 528 608 33,000  Level FlightAware Transoceanic
08:52AM 51.1067 -155.1165 90° East 528 608 33,000  Level FlightAware Transoceanic
08:53AM 51.1067 -154.8835 90° East 528 608 33,000  Level FlightAware Transoceanic
08:54AM 51.1063 -154.6506 90° East 528 608 33,000  Level FlightAware Transoceanic
08:55AM 51.1054 -154.4177 90° East 528 608 33,000  Level FlightAware Transoceanic
08:56AM 51.1040 -154.1848 91° East 528 608 33,000  Level FlightAware Transoceanic
08:57AM 51.1021 -153.9520 91° East 528 608 33,000  Level FlightAware Transoceanic
08:58AM 51.0998 -153.7191 91° East 528 608 33,000  Level FlightAware Transoceanic
08:59AM 51.0970 -153.4863 91° East 528 608 33,000  Level FlightAware Transoceanic
09:00AM 51.0938 -153.2535 91° East 528 608 33,000  Level FlightAware Transoceanic
09:01AM 51.0901 -153.0207 92° East 528 608 33,000  Level FlightAware Transoceanic
09:02AM 51.0859 -152.7880 92° East 528 608 33,000  Level FlightAware Transoceanic
09:03AM 51.0813 -152.5553 92° East 528 608 33,000  Level FlightAware Transoceanic
09:04AM 51.0762 -152.3226 92° East 528 608 33,000  Level FlightAware Transoceanic
09:05AM 51.0707 -152.0901 92° East 528 608 33,000  Level FlightAware Transoceanic
09:06AM 51.0647 -151.8575 92° East 528 608 33,000  Level FlightAware Transoceanic
09:07AM 51.0582 -151.6251 93° East 528 608 33,000  Level FlightAware Transoceanic
09:08AM 51.0513 -151.3927 93° East 528 608 33,000  Level FlightAware Transoceanic
09:09AM 51.0439 -151.1604 93° East 528 608 33,000  Level FlightAware Transoceanic
09:10AM 51.0360 -150.9281 93° East 528 608 33,000  Level FlightAware Transoceanic
09:11AM 51.0277 -150.6960 93° East 528 608 33,000  Level FlightAware Transoceanic
09:12AM 51.0189 -150.4639 94° East 528 608 33,000  Level FlightAware Transoceanic
09:13AM 51.0097 -150.2319 94° East 528 608 33,000  Level FlightAware Transoceanic
09:14AM 51.0000 -150.0000 95° East 528 608 33,000  Level FlightAware Transoceanic
09:15AM 50.9869 -149.7686 95° East 528 608 33,000  Level FlightAware Transoceanic
09:15AM 51.0000 -150.0000 95° East 528 608 33,000  Level Oakland Oceanic (ODAPS)
09:16AM 50.9733 -149.5374 95° East 528 608 33,000  Level FlightAware Transoceanic
09:17AM 50.9593 -149.3063 96° East 528 608 33,000  Level FlightAware Transoceanic
09:18AM 50.9449 -149.0753 96° East 528 608 33,000  Level FlightAware Transoceanic
09:19AM 50.9299 -148.8445 96° East 528 608 33,000  Level FlightAware Transoceanic
09:20AM 50.9146 -148.6138 96° East 528 608 33,000  Level FlightAware Transoceanic
09:21AM 50.8987 -148.3833 96° East 528 608 33,000  Level FlightAware Transoceanic
09:22AM 50.8657 -147.9227 97° East 528 608 33,000  Level FlightAware Transoceanic
09:23AM 50.8485 -147.6927 97° East 528 608 33,000  Level FlightAware Transoceanic
09:24AM 50.8309 -147.4628 97° East 528 608 33,000  Level FlightAware Transoceanic
09:25AM 50.8128 -147.2332 97° East 528 608 33,000  Level FlightAware Transoceanic
09:26AM 50.7942 -147.0037 97° East 528 608 33,000  Level FlightAware Transoceanic
09:27AM 50.7752 -146.7743 98° East 528 608 33,000  Level FlightAware Transoceanic
09:28AM 50.7558 -146.5452 98° East 528 608 33,000  Level FlightAware Transoceanic
09:29AM 50.7359 -146.3163 98° East 528 608 33,000  Level FlightAware Transoceanic
09:30AM 50.7156 -146.0875 98° East 528 608 33,000  Level FlightAware Transoceanic
09:31AM 50.6948 -145.8590 98° East 528 608 33,000  Level FlightAware Transoceanic
09:32AM 50.6735 -145.6307 98° East 528 608 33,000  Level FlightAware Transoceanic
09:33AM 50.6519 -145.4025 99° East 528 608 33,000  Level FlightAware Transoceanic
09:34AM 50.6297 -145.1746 99° East 528 608 33,000  Level FlightAware Transoceanic
09:35AM 50.6072 -144.9469 99° East 528 608 33,000  Level FlightAware Transoceanic
09:36AM 50.5841 -144.7195 99° East 528 608 33,000  Level FlightAware Transoceanic
09:37AM 50.5607 -144.4922 99° East 528 608 33,000  Level FlightAware Transoceanic
09:38AM 50.5368 -144.2652 99° East 528 608 33,000  Level FlightAware Transoceanic
09:39AM 50.5125 -144.0384 100° East 528 608 33,000  Level FlightAware Transoceanic
09:40AM 50.4877 -143.8118 100° East 528 608 33,000  Level FlightAware Transoceanic
09:41AM 50.4625 -143.5855 100° East 528 608 33,000  Level FlightAware Transoceanic
09:42AM 50.4368 -143.3595 100° East 528 608 33,000  Level FlightAware Transoceanic
09:43AM 50.4107 -143.1336 100° East 528 608 33,000  Level FlightAware Transoceanic
09:44AM 50.3842 -142.9081 101° East 528 608 33,000  Level FlightAware Transoceanic
09:45AM 50.3572 -142.6827 101° East 528 608 33,000  Level FlightAware Transoceanic
09:46AM 50.3298 -142.4577 101° East 528 608 33,000  Level FlightAware Transoceanic
09:47AM 50.3020 -142.2329 101° East 528 608 33,000  Level FlightAware Transoceanic
09:48AM 50.2737 -142.0083 101° East 528 608 33,000  Level FlightAware Transoceanic
09:49AM 50.2450 -141.7841 101° East 528 608 33,000  Level FlightAware Transoceanic
09:50AM 50.2159 -141.5601 102° East 528 608 33,000  Level FlightAware Transoceanic
09:51AM 50.1863 -141.3363 102° East 528 608 33,000  Level FlightAware Transoceanic
09:52AM 50.1563 -141.1129 102° East 528 608 33,000  Level FlightAware Transoceanic
09:53AM 50.1259 -140.8898 102° East 528 608 33,000  Level FlightAware Transoceanic
09:54AM 50.0951 -140.6669 102° East 528 608 33,000  Level FlightAware Transoceanic
09:55AM 50.0638 -140.4443 102° East 528 608 33,000  Level FlightAware Transoceanic
09:56AM 50.0321 -140.2220 103° East 528 608 33,000  Level FlightAware Transoceanic
09:57AM 50.0000 -140.0000 99° East 528 608 33,000  Level FlightAware Transoceanic
09:58AM 49.9777 -139.7738 99° East 528 608 33,000  Level FlightAware Transoceanic
09:59AM 49.9549 -139.5479 99° East 528 608 33,000  Level FlightAware Transoceanic
09:59AM 50.0000 -140.0000 99° East 517 595 33,000  Level Oakland Oceanic (ODAPS)
10:00AM 49.9317 -139.3221 99° East 528 608 33,000  Level FlightAware Transoceanic
10:01AM 49.9081 -139.0966 99° East 528 608 33,000  Level FlightAware Transoceanic
10:02AM 49.8840 -138.8713 100° East 528 608 33,000  Level FlightAware Transoceanic
10:03AM 49.8595 -138.6462 100° East 528 608 33,000  Level FlightAware Transoceanic
10:04AM 49.8346 -138.4214 100° East 528 608 33,000  Level FlightAware Transoceanic
10:05AM 49.8396 -138.4663 100° East 517 595 33,000  Level FlightAware Transoceanic
10:06AM 49.8151 -138.2481 100° East 517 595 33,000  Level FlightAware Transoceanic
10:07AM 49.7901 -138.0301 100° East 517 595 33,000  Level FlightAware Transoceanic
10:08AM 49.7647 -137.8123 100° East 517 595 33,000  Level FlightAware Transoceanic
10:09AM 49.7389 -137.5947 100° East 517 595 33,000  Level FlightAware Transoceanic
10:10AM 49.7127 -137.3774 101° East 517 595 33,000  Level FlightAware Transoceanic
10:11AM 49.6861 -137.1603 101° East 517 595 33,000  Level FlightAware Transoceanic
10:12AM 49.6591 -136.9434 101° East 517 595 33,000  Level FlightAware Transoceanic
10:13AM 49.6317 -136.7268 101° East 517 595 33,000  Level FlightAware Transoceanic
10:14AM 49.6039 -136.5105 101° East 517 595 33,000  Level FlightAware Transoceanic
10:15AM 49.5757 -136.2943 101° East 517 595 33,000  Level FlightAware Transoceanic
10:16AM 49.5471 -136.0785 102° East 517 595 33,000  Level FlightAware Transoceanic
10:17AM 49.5181 -135.8629 102° East 517 595 33,000  Level FlightAware Transoceanic
10:18AM 49.4887 -135.6475 102° East 517 595 33,000  Level FlightAware Transoceanic
10:19AM 49.4588 -135.4324 102° East 517 595 33,000  Level FlightAware Transoceanic
10:20AM 49.4286 -135.2176 102° East 517 595 33,000  Level FlightAware Transoceanic
10:21AM 49.3980 -135.0030 102° East 517 595 33,000  Level FlightAware Transoceanic
10:22AM 49.3670 -134.7887 103° East 517 595 33,000  Level FlightAware Transoceanic
10:23AM 49.3356 -134.5747 103° East 517 595 33,000  Level FlightAware Transoceanic
10:24AM 49.3038 -134.3609 103° East 517 595 33,000  Level FlightAware Transoceanic
10:25AM 49.2716 -134.1475 103° East 517 595 33,000  Level FlightAware Transoceanic
10:26AM 49.2390 -133.9343 103° East 517 595 33,000  Level FlightAware Transoceanic
10:27AM 49.2060 -133.7214 103° East 517 595 33,000  Level FlightAware Transoceanic
10:28AM 49.1727 -133.5087 104° East 517 595 33,000  Level FlightAware Transoceanic
10:29AM 49.1389 -133.2964 104° East 517 595 33,000  Level FlightAware Transoceanic
10:30AM 49.1048 -133.0844 104° East 517 595 33,000  Level FlightAware Transoceanic
10:31AM 49.0702 -132.8726 104° East 517 595 33,000  Level FlightAware Transoceanic
10:32AM 49.0353 -132.6612 104° East 517 595 33,000  Level FlightAware Transoceanic
10:33AM 49.0000 -132.4500 92° East 517 595 33,000  Level FlightAware Transoceanic
10:34AM 48.9943 -132.2141 92° East 517 595 33,000  Level FlightAware Transoceanic
10:35AM 48.9881 -131.9782 92° East 517 595 33,000  Level FlightAware Transoceanic
10:36AM 48.9814 -131.7425 93° East 517 595 33,000 720 Level FlightAware Transoceanic
10:36AM 48.9667 -131.9500 93° East 480 552 34,000  Climbing Vancouver Center
10:37AM 48.9743 -131.5067 93° East 517 595 33,000  Descending FlightAware Transoceanic
10:37AM 48.9667 -131.7333 90° East 510 587 34,000  Climbing Vancouver Center
10:38AM 48.9667 -131.2711 93° East 517 595 33,000  Descending FlightAware Transoceanic
10:38AM 48.9667 -131.5167 90° East 520 598 34,000  Climbing Vancouver Center
10:39AM 48.9586 -131.0355 93° East 517 595 33,000  Descending FlightAware Transoceanic
10:39AM 48.9667 -131.2833 90° East 530 610 34,000 720 Climbing Vancouver Center
10:40AM 48.9506 -130.8156 93° East  Level FlightAware Approximate
10:40AM 48.9500 -131.0500 96° East 530 610 34,000  Level Vancouver Center
10:41AM 48.9422 -130.5957 93° East  Level FlightAware Approximate
10:41AM 48.9333 -130.8500 97° East 530 610 34,000  Level Vancouver Center
10:42AM 48.9333 -130.6167 90° East 520 598 34,000  Level Vancouver Center
10:43AM 48.9167 -130.3833 96° East 520 598 34,000 180 Level Vancouver Center
10:44AM 48.9167 -130.1500 90° East 520 598 34,400 480 Climbing Vancouver Center
10:45AM 48.9000 -129.9500 97° East 530 610 35,000 300 Climbing Vancouver Center
10:46AM 48.9000 -129.7500 90° East 520 598 35,000  Level Vancouver Center
10:47AM 48.8833 -129.5167 96° East 520 598 35,000  Level Vancouver Center
10:48AM 48.8667 -129.3167 97° East 510 587 35,000  Level Vancouver Center
10:53AM 48.8250 -128.0720 97° East 512 589 35,000  Level FlightAware
10:54AM 48.8130 -127.8760 95° East 509 586 35,000  Level FlightAware
10:56AM 48.7930 -127.5730 96° East 506 582 35,000  Level FlightAware
10:57AM 48.7820 -127.4220 96° East 505 581 35,000  Level FlightAware
10:57AM 48.7680 -127.2210 96° East 507 583 35,000  Level FlightAware
10:58AM 48.7580 -127.0690 96° East 508 585 35,000  Level FlightAware
10:59AM 48.7440 -126.8920 97° East 511 588 35,000  Level FlightAware
11:00AM 48.7280 -126.6660 96° East 509 586 35,000  Level FlightAware
11:01AM 48.7130 -126.4680 96° East 509 586 35,000  Level FlightAware
11:02AM 48.7010 -126.3190 97° East 510 587 35,000  Level FlightAware
11:02AM 48.6900 -126.1810 97° East 510 587 35,000  Level FlightAware
11:03AM 48.6770 -126.0220 97° East 508 585 35,000  Level FlightAware
11:04AM 48.6660 -125.8890 97° East 506 582 35,000  Level FlightAware
11:04AM 48.6530 -125.7340 97° East 506 582 35,000  Level FlightAware
11:05AM 48.6460 -125.6430 97° East 508 585 35,000  Level FlightAware
11:06AM 48.6430 -125.6080 97° East 507 583 35,000  Level FlightAware
11:06AM 48.6200 -125.3510 98° East 509 586 35,000  Level FlightAware
11:07AM 48.6060 -125.1930 98° East 509 586 35,000  Level FlightAware
11:08AM 48.5930 -125.0450 98° East 509 586 35,000  Level FlightAware
11:08AM 48.5800 -124.8970 98° East 511 588 35,000  Level FlightAware
11:09AM 48.5700 -124.7940 98° East 512 589 35,000  Level FlightAware
11:10AM 48.5580 -124.6600 98° East 513 590 35,000  Level FlightAware
11:10AM 48.5380 -124.4550 98° East 511 588 35,000  Level FlightAware
11:11AM 48.5280 -124.3460 98° East 512 589 35,000  Level FlightAware
11:12AM 48.5050 -124.1170 99° East 512 589 35,000  Level FlightAware
11:13AM 48.4920 -123.9760 98° East 513 590 35,000  Level FlightAware
11:14AM 48.4760 -123.8170 99° East 515 593 35,000  Level FlightAware
11:14AM 48.4630 -123.6940 99° East 515 593 35,000  Level FlightAware
11:15AM 48.4490 -123.5560 99° East 516 594 35,000  Level FlightAware
11:16AM 48.4320 -123.3930 99° East 517 595 35,000  Level FlightAware
11:16AM 48.4150 -123.2330 99° East 517 595 35,000  Level FlightAware
11:17AM 48.3940 -123.0430 99° East 514 592 35,000  Level FlightAware
11:18AM 48.3800 -122.9060 99° East 512 589 35,000  Level FlightAware
11:19AM 48.3620 -122.7490 100° East 512 589 35,000  Level FlightAware
11:19AM 48.3430 -122.5800 100° East 513 590 35,000  Level FlightAware
11:20AM 48.3220 -122.3950 100° East 513 590 35,000  Level FlightAware
11:21AM 48.3070 -122.2610 100° East 513 590 35,000  Level FlightAware
11:22AM 48.2860 -122.0860 100° East 512 589 35,000  Level FlightAware
11:22AM 48.2710 -121.9540 100° East 511 588 35,000  Level FlightAware
11:23AM 48.2520 -121.7930 100° East 511 588 35,000  Level FlightAware
11:24AM 48.2350 -121.6540 100° East 511 588 35,000  Level FlightAware
11:26AM 48.1940 -121.3210 100° East 510 587 35,000  Level FlightAware
11:27AM 48.1660 -121.0990 101° East 508 585 35,000  Level FlightAware
11:27AM 48.1450 -120.9300 100° East 508 585 35,000  Level FlightAware
11:28AM 48.1270 -120.7900 101° East 507 583 35,000  Level FlightAware
11:29AM 48.1010 -120.5950 101° East 504 580 35,000  Level FlightAware
11:30AM 48.0820 -120.4480 101° East 503 579 35,000  Level FlightAware
11:30AM 48.0630 -120.3020 101° East 503 579 35,000  Level FlightAware
11:31AM 48.0430 -120.1520 101° East 505 581 35,000  Level FlightAware
11:32AM 48.0240 -120.0180 102° East 505 581 35,000  Level FlightAware
11:32AM 48.0040 -119.8680 101° East 505 581 35,000  Level FlightAware
11:33AM 47.9870 -119.7460 102° East 505 581 35,000  Level FlightAware
11:34AM 47.9630 -119.5750 102° East 505 581 35,000  Level FlightAware
11:35AM 47.9440 -119.4390 102° East 504 580 35,000  Level FlightAware
11:35AM 47.9370 -119.3940 103° East 504 580 35,000  Level FlightAware
11:36AM 47.9050 -119.1660 102° East 506 582 35,000  Level FlightAware
11:36AM 47.8880 -119.0510 102° East 507 583 35,000  Level FlightAware
11:37AM 47.8640 -118.8870 102° East 507 583 35,000  Level FlightAware
11:38AM 47.8430 -118.7440 102° East 507 583 35,000  Level FlightAware
11:39AM 47.8210 -118.6010 103° East 509 586 35,000  Level FlightAware
11:39AM 47.8000 -118.4610 103° East 509 586 35,000  Level FlightAware
11:40AM 47.7820 -118.3370 102° East 509 586 35,000  Level FlightAware
11:41AM 47.7630 -118.2030 102° East 509 586 35,000  Level FlightAware
11:41AM 47.7480 -118.1010 102° East 509 586 35,000  Level FlightAware
11:42AM 47.7220 -117.9150 102° East 509 586 35,000  Level FlightAware
11:43AM 47.7070 -117.8100 102° East 509 586 35,000  Level FlightAware
11:44AM 47.6880 -117.6760 102° East 509 586 35,000  Level FlightAware
11:44AM 47.6720 -117.5690 102° East 509 586 35,000  Level FlightAware
11:45AM 47.6500 -117.4120 102° East 509 586 35,000  Level FlightAware
11:46AM 47.6320 -117.2900 102° East 509 586 35,000  Level FlightAware
11:47AM 47.6130 -117.1560 102° East 509 586 35,000  Level FlightAware
11:48AM 47.5930 -117.0200 102° East 509 586 35,000  Level FlightAware
11:48AM 47.5780 -116.9150 102° East 509 586 35,000  Level FlightAware
11:49AM 47.5580 -116.7730 102° East 509 586 35,000  Level FlightAware
11:50AM 47.4647 -116.3786 102° East 509 586 35,000  Level Salt Lake Center
11:51AM 47.4225 -116.1369 104° East 508 585 35,000  Level Salt Lake Center
11:52AM 47.3953 -115.9767 104° East 507 583 35,000  Level Seattle Center
11:53AM 47.3519 -115.7364 105° East 507 583 35,000  Level Seattle Center
11:54AM 47.3192 -115.5506 105° East 505 581 35,000  Level Seattle Center
11:55AM 47.2825 -115.3494 105° East 510 587 35,000  Level Seattle Center
11:56AM 47.2389 -115.1094 105° East 510 587 35,000  Level Salt Lake Center
11:57AM 47.2014 -114.9097 105° East 509 586 35,000 480 Level Salt Lake Center
11:58AM 47.1647 -114.7108 105° East 509 586 36,000 960 Climbing Salt Lake Center
11:59AM 47.1272 -114.5139 106° East 505 581 37,000 480 Climbing Salt Lake Center
12:00PM 47.0819 -114.2767 106° East 506 582 37,000  Level Salt Lake Center
12:01PM 47.0444 -114.0792 106° East 506 582 37,000  Level Salt Lake Center
12:02PM 47.0044 -113.8833 107° East 503 579 37,000  Level Salt Lake Center
12:03PM 46.9661 -113.6881 106° East 503 579 37,000  Level Salt Lake Center
12:04PM 46.9275 -113.4919 106° East 504 580 37,000  Level Salt Lake Center
12:05PM 46.8878 -113.2983 107° East 501 577 37,000  Level Salt Lake Center
12:06PM 46.8392 -113.0564 106° East 510 587 37,000  Level Salt Lake Center
12:07PM 46.8028 -112.8822 107° East 508 585 37,000  Level Salt Lake Center
12:08PM 46.7622 -112.6825 106° East 513 590 37,000  Level Salt Lake Center
12:09PM 46.7125 -112.4469 107° East 511 588 37,000  Level Salt Lake Center
12:10PM 46.6703 -112.2489 107° East 513 590 37,000  Level Salt Lake Center
12:11PM 46.6292 -112.0544 107° East 509 586 37,000  Level Salt Lake Center
12:13PM 46.5958 -111.8522 103° East 516 594 37,000  Level Salt Lake Center
12:14PM 46.5750 -111.6458 98° East 522 601 37,000  Level Salt Lake Center
12:15PM 46.5489 -111.3967 99° East 523 602 37,000  Level Salt Lake Center
12:16PM 46.5267 -111.1889 99° East 525 604 37,000  Level Salt Lake Center
12:17PM 46.5042 -110.9789 99° East 528 608 37,000  Level Salt Lake Center
12:18PM 46.4800 -110.7672 99° East 532 612 37,000  Level Salt Lake Center
12:19PM 46.4561 -110.5572 99° East 532 612 37,000  Level Salt Lake Center
12:20PM 46.4272 -110.3075 99° East 529 609 37,000  Level Salt Lake Center
12:21PM 46.4025 -110.0944 99° East 534 615 37,000  Level Salt Lake Center
12:22PM 46.3767 -109.8825 100° East 536 617 37,000  Level Salt Lake Center
12:23PM 46.3525 -109.6617 99° East 539 620 37,000  Level Salt Lake Center
12:24PM 46.3231 -109.4325 100° East 538 619 37,000  Level Salt Lake Center
12:25PM 46.2967 -109.2178 100° East 546 628 37,000  Level Salt Lake Center
12:26PM 46.2678 -108.9908 100° East 539 620 37,000  Level Salt Lake Center
12:27PM 46.2403 -108.7814 101° East 535 616 37,000  Level Salt Lake Center
12:28PM 46.2111 -108.5569 101° East 530 610 37,000  Level Salt Lake Center
12:29PM 46.1833 -108.3494 101° East 531 611 37,000  Level Salt Lake Center
12:30PM 46.1528 -108.1242 101° East 533 613 37,000  Level Salt Lake Center
12:31PM 46.1233 -107.9169 102° East 532 612 37,000  Level Salt Lake Center
12:32PM 46.0917 -107.6883 101° East 542 624 37,000  Level Salt Lake Center
12:33PM 46.0617 -107.4769 101° East 546 628 37,000  Level Salt Lake Center
12:34PM 46.0278 -107.2472 102° East 551 634 37,000  Level Salt Lake Center
12:35PM 45.9967 -107.0319 102° East 539 620 37,000  Level Salt Lake Center
12:36PM 45.9642 -106.8194 102° East 542 624 37,000  Level Salt Lake Center
12:37PM 45.9306 -106.6075 103° East 544 626 37,000  Level Salt Lake Center
12:38PM 45.8986 -106.3972 102° East 544 626 37,000  Level Salt Lake Center
12:39PM 45.8681 -106.1869 102° East 544 626 37,000  Level Salt Lake Center
12:40PM 45.8350 -105.9769 103° East 543 625 37,000  Level Salt Lake Center
12:41PM 45.7978 -105.7303 102° East 540 621 37,000  Level Salt Lake Center
12:42PM 45.7656 -105.5214 102° East 538 619 37,000  Level Salt Lake Center
12:44PM 45.7306 -105.3111 103° East 541 623 37,000  Level Salt Lake Center
12:45PM 45.6953 -105.0975 103° East 549 632 37,000  Level Salt Lake Center
12:46PM 45.6606 -104.8872 103° East 549 632 37,000  Level Salt Lake Center
12:47PM 45.6250 -104.6783 104° East 547 629 37,000  Level Salt Lake Center
12:48PM 45.5817 -104.4267 104° East 547 629 37,000  Level Salt Lake Center
12:49PM 45.5453 -104.2147 104° East 549 632 37,000  Level Salt Lake Center
12:50PM 45.5081 -104.0008 104° East 554 638 37,000  Level Salt Lake Center
12:51PM 45.4711 -103.7897 104° East 554 638 37,000  Level Salt Lake Center
12:52PM 45.4333 -103.5794 104° East 553 636 37,000  Level Salt Lake Center
12:53PM 45.3878 -103.3314 105° East 547 629 37,000  Level Salt Lake Center
12:54PM 45.3497 -103.1214 104° East 548 631 37,000  Level Salt Lake Center
12:54PM 45.3289 -103.0156 106° East 550 633 37,000  Level Minneapolis Center
12:56PM 45.2892 -102.8069 105° East 549 632 37,000  Level Minneapolis Center
12:57PM 45.2403 -102.5536 105° East 553 636 37,000  Level Minneapolis Center
12:58PM 45.2006 -102.3422 105° East 556 640 37,000  Level Minneapolis Center
12:59PM 45.1597 -102.1306 105° East 558 642 37,000  Level Minneapolis Center
01:00PM 45.1178 -101.9186 106° East 559 643 37,000  Level Minneapolis Center
01:01PM 45.0719 -101.7083 107° East 561 646 37,000  Level Minneapolis Center
01:02PM 44.9847 -101.4817 118° Southeast 551 634 37,000  Level Minneapolis Center
01:03PM 44.9111 -101.2936 119° Southeast 549 632 37,000  Level Minneapolis Center
01:04PM 44.8367 -101.1064 119° Southeast 550 633 37,000  Level Minneapolis Center
01:05PM 44.7617 -100.9197 119° Southeast 551 634 37,000  Level Minneapolis Center
01:06PM 44.6867 -100.7333 119° Southeast 551 634 37,000  Level Minneapolis Center
01:07PM 44.5950 -100.5089 120° Southeast 555 639 37,000  Level Minneapolis Center
01:08PM 44.5189 -100.3228 120° Southeast 555 639 37,000  Level Minneapolis Center
01:09PM 44.4431 -100.1369 120° Southeast 556 640 37,000  Level Minneapolis Center
01:10PM 44.3664 -99.9517 120° Southeast 555 639 37,000  Level Minneapolis Center
01:11PM 44.2883 -99.7669 121° Southeast 556 640 37,000  Level Minneapolis Center
01:12PM 44.1958 -99.5417 120° Southeast 559 643 37,000  Level Minneapolis Center
01:13PM 44.1167 -99.3558 121° Southeast 560 644 37,000  Level Minneapolis Center
01:14PM 44.0367 -99.1711 121° Southeast 560 644 37,000  Level Minneapolis Center
01:15PM 43.9572 -98.9853 121° Southeast 561 646 37,000  Level Minneapolis Center
01:21PM 43.5330 -98.0150 121° Southeast 562 647 37,000  Level FlightAware
01:21PM 43.4410 -97.8110 122° Southeast 563 648 37,000  Level FlightAware
01:22PM 43.3810 -97.6760 121° Southeast 564 649 37,000  Level FlightAware
01:23PM 43.3260 -97.5550 122° Southeast 565 650 37,000  Level FlightAware
01:24PM 43.2650 -97.4210 122° Southeast 565 650 37,000  Level FlightAware
01:24PM 43.2080 -97.2960 122° Southeast 566 651 37,000  Level FlightAware
01:25PM 43.1560 -97.1830 122° Southeast 567 652 37,000  Level FlightAware
01:26PM 43.0690 -96.9920 122° Southeast 570 656 37,000  Level FlightAware
01:27PM 43.0080 -96.8610 122° Southeast 570 656 37,000  Level FlightAware
01:27PM 42.9560 -96.7480 122° Southeast 570 656 37,000  Level FlightAware
01:28PM 42.8920 -96.6120 123° Southeast 570 656 37,000  Level FlightAware
01:29PM 42.8340 -96.4870 122° Southeast 571 657 37,000  Level FlightAware
01:29PM 42.7750 -96.3630 123° Southeast 573 659 37,000  Level FlightAware
01:30PM 42.7100 -96.2240 122° Southeast 573 659 37,000  Level FlightAware
01:31PM 42.6510 -96.0990 123° Southeast 573 659 37,000  Level FlightAware
01:32PM 42.5920 -95.9760 123° Southeast 571 657 37,000  Level FlightAware
01:32PM 42.5350 -95.8560 123° Southeast 571 657 37,000  Level FlightAware
01:33PM 42.4750 -95.7300 123° Southeast 569 655 37,000  Level FlightAware
01:34PM 42.4140 -95.6050 123° Southeast 568 654 37,000  Level FlightAware
01:34PM 42.3500 -95.4740 123° Southeast 566 651 37,000  Level FlightAware
01:35PM 42.2710 -95.3120 123° Southeast 565 650 37,000  Level FlightAware
01:36PM 42.2190 -95.2060 123° Southeast 566 651 37,000  Level FlightAware
01:37PM 42.1660 -95.0940 123° Southeast 565 650 37,000  Level FlightAware
01:37PM 42.0980 -94.9590 124° Southeast 565 650 37,000  Level FlightAware
01:38PM 42.0240 -94.8100 124° Southeast 564 649 37,000  Level FlightAware
01:39PM 41.9630 -94.6850 123° Southeast 565 650 37,000  Level FlightAware
01:40PM 41.8960 -94.5510 124° Southeast 565 650 37,000  Level FlightAware
01:41PM 41.8310 -94.4230 124° Southeast 565 650 37,000  Level FlightAware
01:41PM 41.7500 -94.2610 124° Southeast 566 651 37,000  Level FlightAware
01:42PM 41.6910 -94.1440 124° Southeast 566 651 37,000  Level FlightAware
01:43PM 41.6290 -94.0230 124° Southeast 567 652 37,000  Level FlightAware
01:43PM 41.5670 -93.9010 124° Southeast 567 652 37,000  Level FlightAware
01:44PM 41.5030 -93.7770 125° Southeast 565 650 37,000  Level FlightAware
01:45PM 41.4370 -93.6600 127° Southeast 567 652 37,000  Level FlightAware
01:45PM 41.3610 -93.5540 134° Southeast 567 652 37,000  Level FlightAware
01:46PM 41.2830 -93.4480 134° Southeast 567 652 37,000  Level FlightAware
01:47PM 41.2090 -93.3510 135° Southeast 567 652 37,000  Level FlightAware
01:47PM 41.1320 -93.2520 136° Southeast 569 655 37,000  Level FlightAware
01:48PM 41.0530 -93.1530 137° Southeast 569 655 37,000  Level FlightAware
01:49PM 40.9710 -93.0500 137° Southeast 569 655 37,000  Level FlightAware
01:50PM 40.8640 -92.9130 136° Southeast 568 654 37,000  Level FlightAware
01:51PM 40.8280 -92.8670 136° Southeast 569 655 37,000  Level FlightAware
01:51PM 40.6990 -92.7050 136° Southeast 569 655 37,000  Level FlightAware
01:52PM 40.6240 -92.6110 136° Southeast 568 654 37,000  Level FlightAware
01:53PM 40.5490 -92.5180 137° Southeast 568 654 37,000  Level FlightAware
01:53PM 40.4620 -92.4090 136° Southeast 568 654 37,000  Level FlightAware
01:54PM 40.3780 -92.3050 137° Southeast 568 654 37,000  Level FlightAware
01:55PM 40.3020 -92.2100 136° Southeast 568 654 37,000  Level FlightAware
01:56PM 40.1980 -92.0820 137° Southeast 568 654 37,000  Level FlightAware
01:56PM 40.1110 -91.9770 137° Southeast 568 654 37,000  Level FlightAware
01:57PM 40.0370 -91.8850 136° Southeast 568 654 37,000  Level FlightAware
01:58PM 39.9580 -91.7890 137° Southeast 568 654 37,000  Level FlightAware
01:58PM 39.8960 -91.7150 138° Southeast 568 654 37,000  Level FlightAware
01:59PM 39.8270 -91.6310 137° Southeast 568 654 37,000  Level FlightAware
02:00PM 39.7460 -91.5330 137° Southeast 568 654 37,000  Level FlightAware
02:00PM 39.6970 -91.4730 137° Southeast 567 652 37,000  Level FlightAware
02:01PM 39.5870 -91.3410 137° Southeast 566 651 37,000  Level FlightAware
02:02PM 39.4940 -91.2300 137° Southeast 566 651 37,000  Level FlightAware
02:02PM 39.4180 -91.1380 137° Southeast 566 651 37,000  Level FlightAware
02:03PM 39.3300 -91.0330 137° Southeast 566 651 37,000  Level FlightAware
02:04PM 39.2370 -90.9240 138° Southeast 564 649 37,000  Level FlightAware
02:05PM 39.1570 -90.8310 138° Southeast 563 648 37,000  Level FlightAware
02:05PM 39.0820 -90.7410 137° Southeast 563 648 37,000  Level FlightAware
02:06PM 39.0120 -90.6580 137° Southeast 562 647 37,000  Level FlightAware
02:07PM 38.9060 -90.5360 138° Southeast 560 644 37,000  Level FlightAware
02:08PM 38.8260 -90.4360 136° Southeast 558 642 37,000  Level FlightAware
02:08PM 38.7550 -90.3290 130° Southeast 556 640 37,000  Level FlightAware
02:09PM 38.6900 -90.2320 131° Southeast 557 641 37,000  Level FlightAware
02:10PM 38.6430 -90.1590 129° Southeast 557 641 37,000  Level FlightAware
02:10PM 38.5760 -90.0640 132° Southeast 557 641 37,000  Level FlightAware
02:11PM 38.4960 -89.9450 131° Southeast 557 641 37,000  Level FlightAware
02:12PM 38.4190 -89.8360 132° Southeast 556 640 37,000  Level FlightAware
02:12PM 38.3490 -89.7350 131° Southeast 556 640 37,000  Level FlightAware
02:13PM 38.2920 -89.6510 131° Southeast 556 640 37,000  Level FlightAware
02:14PM 38.2400 -89.5750 131° Southeast 556 640 37,000  Level FlightAware
02:14PM 38.1700 -89.4730 131° Southeast 556 640 37,000  Level FlightAware
02:15PM 38.0830 -89.3520 132° Southeast 553 636 37,000  Level FlightAware
02:16PM 37.9490 -89.1610 132° Southeast 551 634 37,000  Level FlightAware
02:17PM 37.8680 -89.0450 131° Southeast 550 633 37,000  Level FlightAware
02:18PM 37.8070 -88.9570 131° Southeast 550 633 37,000  Level FlightAware
02:18PM 37.7550 -88.8830 132° Southeast 550 633 37,000  Level FlightAware
02:19PM 37.6930 -88.7920 131° Southeast 550 633 37,000  Level FlightAware
02:20PM 37.5850 -88.6490 134° Southeast 549 632 37,000  Level FlightAware
02:21PM 37.5190 -88.5560 132° Southeast 550 633 37,000  Level FlightAware
02:21PM 37.4250 -88.4250 132° Southeast 551 634 37,000  Level FlightAware
02:22PM 37.3490 -88.3200 132° Southeast 552 635 37,000  Level FlightAware
02:23PM 37.2850 -88.2330 133° Southeast 553 636 37,000  Level FlightAware
02:24PM 37.1870 -88.0970 132° Southeast 554 638 37,000  Level FlightAware
02:24PM 37.0990 -87.9760 132° Southeast 555 639 37,000  Level FlightAware
02:25PM 37.0420 -87.8980 132° Southeast 555 639 37,000  Level FlightAware
02:26PM 36.9540 -87.7790 133° Southeast 555 639 37,000  Level FlightAware
02:26PM 36.8930 -87.6960 133° Southeast 554 638 37,000  Level FlightAware
02:27PM 36.8150 -87.5910 133° Southeast 554 638 37,000  Level FlightAware
02:28PM 36.7340 -87.4800 132° Southeast 552 635 37,000  Level FlightAware
02:29PM 36.6640 -87.3870 133° Southeast 552 635 37,000  Level FlightAware
02:29PM 36.5920 -87.2890 132° Southeast 551 634 37,000  Level FlightAware
02:30PM 36.5160 -87.1870 133° Southeast 549 632 37,000  Level FlightAware
02:31PM 36.4510 -87.1020 134° Southeast 549 632 37,000  Level FlightAware
02:31PM 36.3680 -86.9990 135° Southeast 549 632 37,000  Level FlightAware
02:32PM 36.2880 -86.9160 140° Southeast 549 632 37,000  Level FlightAware
02:33PM 36.2030 -86.8380 143° Southeast 549 632 37,000  Level FlightAware
02:33PM 36.1788 -86.8160 144° Southeast 549 632 37,000  Level FlightAware ADS-B
02:34PM 36.1130 -86.7700 151° Southeast 542 624 37,000  Level FlightAware
02:34PM 36.0520 -86.7438 161° South 542 624 37,000  Level FlightAware ADS-B
02:35PM 35.9170 -86.6860 161° South 540 621 37,000  Level FlightAware
02:36PM 35.8080 -86.6390 161° South 540 621 37,000  Level FlightAware
02:36PM 35.7861 -86.6297 161° South 540 621 37,000  Level FlightAware ADS-B
02:36PM 35.7038 -86.5952 161° South 541 623 37,000 -600 Level FlightAware ADS-B
02:37PM 35.6306 -86.5647 161° South 538 619 36,400 -1,080 Descending FlightAware ADS-B
02:38PM 35.5257 -86.5210 161° South 538 619 35,700 -960 Descending FlightAware ADS-B
02:38PM 35.4532 -86.4906 161° South 533 613 35,200 -660 Descending FlightAware ADS-B
02:39PM 35.3776 -86.4590 161° South 525 604 35,000 -240 Descending FlightAware ADS-B
02:39PM 35.3073 -86.4310 162° South 525 604 35,000 -180 Level FlightAware ADS-B
02:40PM 35.2144 -86.3941 162° South 527 606 34,800 -600 Descending FlightAware ADS-B
02:40PM 35.1816 -86.3851 167° South 520 598 34,500 -960 Descending FlightAware ADS-B
02:41PM 35.1086 -86.3775 175° South 509 586 34,100 -540 Descending FlightAware ADS-B
02:41PM 35.0393 -86.3719 176° South 492 566 34,000 -120 Descending FlightAware ADS-B
02:42PM 34.9676 -86.3660 176° South 483 556 34,000  Level FlightAware ADS-B
02:42PM 34.8656 -86.3573 176° South 482 555 34,000  Level FlightAware ADS-B
02:43PM 34.7818 -86.3508 176° South 481 554 34,000  Level FlightAware ADS-B
02:44PM 34.6934 -86.3441 176° South 479 551 34,000  Level FlightAware ADS-B
02:45PM 34.5970 -86.3360 176° South 478 550 34,000  Level FlightAware
02:45PM 34.4960 -86.2746 153° Southeast 478 550 34,000 -120 Level FlightAware ADS-B
02:46PM 34.4644 -86.2036 118° Southeast 478 550 33,900 -480 Descending FlightAware ADS-B
02:46PM 34.4596 -86.1863 109° East 465 535 33,700 -1,920 Descending FlightAware ADS-B
02:46PM 34.4392 -86.1126 109° East 461 531 32,700 -2,280 Descending FlightAware ADS-B
02:47PM 34.4189 -86.0367 108° East 459 528 31,400 -2,880 Descending FlightAware ADS-B
02:48PM 34.3972 -85.9565 108° East 475 547 29,700 -2,820 Descending FlightAware ADS-B
02:48PM 34.3751 -85.8761 108° East 471 542 28,400 -2,220 Descending FlightAware ADS-B
02:49PM 34.3525 -85.7945 109° East 465 535 27,300 -2,100 Descending FlightAware ADS-B
02:49PM 34.3311 -85.7189 109° East 456 525 26,200 -2,460 Descending FlightAware ADS-B
02:50PM 34.3103 -85.6428 108° East 446 513 24,800 -2,760 Descending FlightAware ADS-B
02:50PM 34.2901 -85.5707 109° East 436 502 23,400 -2,700 Descending FlightAware ADS-B
02:51PM 34.2685 -85.4949 109° East 431 496 21,900 -2,220 Descending FlightAware ADS-B
02:52PM 34.2383 -85.3872 109° East 422 486 20,400 -1,920 Descending FlightAware ADS-B
02:52PM 34.2184 -85.3173 109° East 410 472 19,400 -2,040 Descending FlightAware ADS-B
02:53PM 34.1925 -85.2250 109° East 408 470 17,900 -2,100 Descending FlightAware ADS-B
02:54PM 34.1420 -85.0960 115° Southeast 397 457 15,700 -1,680 Descending FlightAware
02:55PM 34.0460 -84.9670 132° Southeast 383 441 14,000 -1,080 Descending FlightAware
02:56PM 34.0040 -84.9100 132° Southeast 383 441 13,600 -1,260 Descending FlightAware
02:57PM 33.9490 -84.8420 134° Southeast 368 423 12,000 -900 Descending FlightAware
02:58PM 33.8880 -84.7650 134° Southeast 328 377 12,100 60 Climbing FlightAware
02:58PM 33.8400 -84.7050 134° Southeast 330 380 12,100 -120 Level FlightAware
02:59PM 33.7960 -84.6480 133° Southeast 334 384 12,000  Descending FlightAware
03:00PM 33.7410 -84.5770 133° Southeast 283 326 12,100 -480 Climbing FlightAware
03:01PM 33.7300 -84.5220 104° East 281 323 11,300 -1,620 Descending FlightAware
03:01PM 33.7300 -84.4500 90° East 285 328 9,900 -1,860 Descending FlightAware
03:02PM 33.7320 -84.3790 88° East 284 327 8,600 -1,680 Descending FlightAware
03:02PM 33.7330 -84.3320 89° East 278 320 7,900 -1,500 Descending FlightAware
03:03PM 33.7340 -84.2900 88° East 274 315 7,200 -1,200 Descending FlightAware
03:03PM 33.7340 -84.2700 90° East 278 320 7,100 -480 Descending FlightAware
03:03PM 33.7340 -84.2460 90° East 278 320 7,000  Descending FlightAware
03:04PM 33.7350 -84.2030 88° East 274 315 7,100  Climbing FlightAware
03:04PM 33.7360 -84.1590 88° East 264 304 7,000 -180 Descending FlightAware
03:05PM 33.7370 -84.1460 85° East 250 288 7,000 60 Level FlightAware
03:05PM 33.7380 -84.0970 89° East 243 280 7,100  Climbing FlightAware
03:06PM 33.7390 -84.0570 88° East 241 277 7,000 -120 Descending FlightAware
03:06PM 33.7070 -84.0160 133° Southeast 212 244 7,000 -360 Level FlightAware
03:07PM 33.6870 -84.0110 168° South 208 239 6,600 -1,020 Descending FlightAware
03:07PM 33.6610 -84.0220 199° South 181 208 6,100 -540 Descending FlightAware
03:08PM 33.6510 -84.0440 241° Southwest 173 199 6,100  Level FlightAware
03:08PM 33.6420 -84.0610 238° Southwest 178 205 6,100  Level FlightAware
03:09PM 33.6330 -84.0840 245° Southwest 169 194 6,100 -240 Level FlightAware
03:09PM 33.6310 -84.1060 264° West 174 200 5,900 -720 Descending FlightAware
03:09PM 33.6310 -84.1260 270° West 180 207 5,600 -960 Descending FlightAware
03:10PM 33.6310 -84.1520 270° West 182 209 5,200 -1,020 Descending FlightAware
03:10PM 33.6320 -84.1680 274° West 183 211 4,900 -960 Descending FlightAware
03:10PM 33.6320 -84.1890 270° West 184 212 4,600 -1,020 Descending FlightAware
03:11PM 33.6320 -84.2250 270° West 193 222 4,000 -960 Descending FlightAware
03:11PM 33.6320 -84.2340 270° West 194 223 3,900 -840 Descending FlightAware
03:11PM 33.6320 -84.2620 270° West 198 228 3,500 -1,020 Descending FlightAware
03:12PM 33.6320 -84.2990 270° West 184 212 2,900 -1,020 Descending FlightAware
03:12PM 33.6320 -84.3240 270° West 165 190 2,500 -900 Descending FlightAware
03:13PM 33.6320 -84.3510 270° West 146 168 2,100 -780 Descending FlightAware
03:14PM 33.6320 -84.3840 270° West 138 159 1,600 -720 Descending FlightAware
03:14PM 33.6320 -84.4030 270° West 138 159 1,300 -720 Descending FlightAware
03:15PM 33.6320 -84.4230 270° West 140 161 1,000 -720 Descending FlightAware
03:15PM 33.6320 -84.4380 270° West 46 53 -2,040 Descending FlightAware